createdAt,value
2018-06-08T00:00:05.364Z,0.00
2018-06-08T00:01:05.380Z,0.00
2018-06-08T00:02:05.404Z,0.00
2018-06-08T00:03:05.439Z,0.00
2018-06-08T00:04:05.469Z,0.00
2018-06-08T00:05:05.495Z,0.00
2018-06-08T00:06:05.524Z,0.00
2018-06-08T00:07:05.550Z,0.00
2018-06-08T00:08:05.586Z,0.00
2018-06-08T00:09:05.609Z,0.00
2018-06-08T00:10:05.641Z,0.00
2018-06-08T00:11:05.672Z,0.00
2018-06-08T00:12:05.698Z,0.00
2018-06-08T00:13:05.731Z,0.00
2018-06-08T00:14:05.757Z,0.00
2018-06-08T00:15:05.787Z,0.00
2018-06-08T00:16:05.813Z,0.00
2018-06-08T00:17:05.843Z,0.00
2018-06-08T00:18:05.875Z,0.00
2018-06-08T00:19:05.905Z,0.00
2018-06-08T00:20:05.933Z,0.00
2018-06-08T00:21:05.972Z,0.00
2018-06-08T00:22:05.994Z,0.00
2018-06-08T00:23:06.018Z,0.00
2018-06-08T00:24:06.045Z,0.00
2018-06-08T00:25:06.080Z,0.00
2018-06-08T00:26:06.104Z,0.00
2018-06-08T00:27:06.144Z,0.00
2018-06-08T00:28:06.163Z,0.00
2018-06-08T00:29:06.192Z,0.00
2018-06-08T00:30:06.223Z,0.00
2018-06-08T00:31:06.247Z,0.00
2018-06-08T00:32:06.280Z,0.00
2018-06-08T00:33:06.308Z,0.00
2018-06-08T00:34:06.336Z,0.00
2018-06-08T00:35:06.362Z,0.00
2018-06-08T00:36:06.393Z,0.00
2018-06-08T00:37:06.426Z,0.00
2018-06-08T00:38:06.455Z,0.00
2018-06-08T00:39:06.484Z,0.00
2018-06-08T00:40:06.507Z,0.00
2018-06-08T00:41:06.538Z,0.00
2018-06-08T00:42:06.570Z,0.00
2018-06-08T00:43:06.598Z,0.00
2018-06-08T00:44:06.628Z,0.00
2018-06-08T00:45:06.658Z,0.00
2018-06-08T00:46:06.686Z,0.00
2018-06-08T00:47:06.712Z,0.00
2018-06-08T00:48:06.749Z,0.00
2018-06-08T00:49:06.776Z,0.00
2018-06-08T00:50:06.806Z,0.00
2018-06-08T00:51:06.828Z,0.00
2018-06-08T00:52:06.856Z,0.00
2018-06-08T00:53:06.892Z,0.00
2018-06-08T00:54:06.922Z,0.00
2018-06-08T00:55:06.942Z,0.00
2018-06-08T00:56:06.981Z,0.00
2018-06-08T00:57:07.006Z,0.00
2018-06-08T00:58:07.033Z,0.00
2018-06-08T00:59:07.056Z,0.00
2018-06-08T01:00:07.088Z,0.00
2018-06-08T01:01:07.153Z,0.00
2018-06-08T01:02:07.146Z,0.00
2018-06-08T01:03:07.177Z,0.00
2018-06-08T01:04:07.203Z,0.00
2018-06-08T01:05:07.232Z,0.00
2018-06-08T01:06:07.266Z,0.00
2018-06-08T01:07:07.295Z,0.00
2018-06-08T01:08:07.315Z,0.00
2018-06-08T01:09:07.345Z,0.00
2018-06-08T01:10:07.380Z,0.00
2018-06-08T01:11:07.405Z,0.00
2018-06-08T01:12:07.440Z,0.00
2018-06-08T01:13:07.465Z,0.00
2018-06-08T01:14:07.496Z,0.00
2018-06-08T01:15:07.525Z,0.00
2018-06-08T01:16:07.546Z,0.00
2018-06-08T01:17:07.577Z,0.00
2018-06-08T01:18:07.610Z,0.00
2018-06-08T01:19:07.635Z,0.00
2018-06-08T01:20:07.667Z,0.00
2018-06-08T01:21:07.694Z,0.00
2018-06-08T01:22:07.722Z,0.00
2018-06-08T01:23:07.751Z,0.00
2018-06-08T01:24:07.782Z,0.00
2018-06-08T01:25:07.808Z,0.00
2018-06-08T01:26:07.836Z,0.00
2018-06-08T01:27:07.866Z,0.00
2018-06-08T01:28:07.895Z,0.00
2018-06-08T01:29:07.921Z,0.00
2018-06-08T01:30:07.951Z,0.00
2018-06-08T01:31:07.981Z,0.00
2018-06-08T01:32:08.010Z,0.00
2018-06-08T01:33:08.042Z,0.00
2018-06-08T01:34:08.069Z,0.00
2018-06-08T01:35:08.096Z,0.00
2018-06-08T01:36:08.120Z,0.00
2018-06-08T01:37:08.150Z,0.00
2018-06-08T01:38:08.184Z,0.00
2018-06-08T01:39:08.204Z,0.00
2018-06-08T01:40:08.234Z,0.00
2018-06-08T01:41:08.264Z,0.00
2018-06-08T01:42:08.294Z,0.00
2018-06-08T01:43:08.320Z,0.00
2018-06-08T01:44:08.353Z,0.00
2018-06-08T01:45:08.385Z,0.00
2018-06-08T01:46:08.414Z,0.00
2018-06-08T01:47:08.435Z,0.00
2018-06-08T01:48:08.468Z,0.00
2018-06-08T01:49:08.493Z,0.00
2018-06-08T01:50:08.524Z,0.00
2018-06-08T01:51:08.551Z,0.00
2018-06-08T01:52:08.583Z,0.00
2018-06-08T01:53:08.614Z,0.00
2018-06-08T01:54:08.647Z,0.00
2018-06-08T01:55:08.663Z,0.00
2018-06-08T01:56:08.693Z,0.00
2018-06-08T01:57:08.721Z,0.00
2018-06-08T01:58:08.750Z,0.00
2018-06-08T01:59:08.780Z,0.00
2018-06-08T02:00:08.814Z,0.00
2018-06-08T02:01:08.842Z,0.00
2018-06-08T02:02:08.868Z,0.00
2018-06-08T02:03:08.890Z,0.00
2018-06-08T02:04:08.918Z,0.00
2018-06-08T02:05:08.949Z,0.00
2018-06-08T02:06:08.980Z,0.00
2018-06-08T02:07:09.009Z,0.00
2018-06-08T02:08:09.037Z,0.00
2018-06-08T02:09:09.061Z,0.00
2018-06-08T02:10:09.090Z,0.00
2018-06-08T02:11:09.122Z,0.00
2018-06-08T02:12:09.149Z,0.00
2018-06-08T02:13:09.180Z,0.00
2018-06-08T02:14:09.205Z,0.00
2018-06-08T02:15:09.230Z,0.00
2018-06-08T02:16:09.259Z,0.00
2018-06-08T02:17:09.292Z,0.00
2018-06-08T02:18:09.323Z,0.00
2018-06-08T02:19:09.348Z,0.00
2018-06-08T02:20:09.373Z,0.00
2018-06-08T02:21:09.400Z,0.00
2018-06-08T02:22:09.437Z,0.00
2018-06-08T02:23:09.458Z,0.00
2018-06-08T02:24:09.488Z,0.00
2018-06-08T02:25:09.519Z,0.00
2018-06-08T02:26:09.543Z,0.00
2018-06-08T02:27:09.574Z,0.00
2018-06-08T02:28:09.599Z,0.00
2018-06-08T02:29:09.632Z,0.00
2018-06-08T02:30:09.666Z,0.00
2018-06-08T02:31:09.683Z,0.00
2018-06-08T02:32:09.713Z,0.00
2018-06-08T02:33:09.738Z,0.00
2018-06-08T02:34:09.775Z,0.00
2018-06-08T02:35:09.803Z,0.00
2018-06-08T02:36:09.868Z,0.00
2018-06-08T02:37:09.860Z,0.00
2018-06-08T02:38:09.886Z,0.00
2018-06-08T02:39:09.912Z,0.00
2018-06-08T02:40:09.943Z,0.00
2018-06-08T02:41:09.970Z,0.00
2018-06-08T02:42:09.993Z,0.00
2018-06-08T02:43:10.027Z,0.00
2018-06-08T02:44:10.057Z,0.00
2018-06-08T02:45:10.084Z,0.00
2018-06-08T02:46:10.111Z,0.00
2018-06-08T02:47:10.141Z,0.00
2018-06-08T02:48:10.165Z,0.00
2018-06-08T02:49:10.196Z,0.00
2018-06-08T02:50:10.222Z,0.00
2018-06-08T02:51:10.248Z,0.00
2018-06-08T02:52:10.279Z,0.00
2018-06-08T02:53:10.309Z,0.00
2018-06-08T02:54:10.333Z,0.00
2018-06-08T02:55:10.363Z,0.00
2018-06-08T02:56:10.388Z,0.00
2018-06-08T02:57:10.422Z,0.00
2018-06-08T02:58:10.447Z,0.00
2018-06-08T02:59:10.472Z,0.00
2018-06-08T03:00:10.504Z,0.00
2018-06-08T03:01:10.528Z,0.00
2018-06-08T03:02:10.561Z,0.00
2018-06-08T03:03:10.592Z,0.00
2018-06-08T03:04:10.612Z,0.00
2018-06-08T03:05:10.646Z,0.00
2018-06-08T03:06:10.682Z,0.00
2018-06-08T03:07:10.700Z,0.00
2018-06-08T03:08:10.734Z,0.00
2018-06-08T03:09:10.758Z,0.00
2018-06-08T03:10:10.783Z,0.00
2018-06-08T03:11:10.838Z,0.00
2018-06-08T03:12:10.906Z,0.00
2018-06-08T03:13:10.870Z,0.00
2018-06-08T03:14:10.897Z,0.00
2018-06-08T03:15:10.923Z,0.00
2018-06-08T03:16:10.951Z,0.00
2018-06-08T03:17:10.982Z,0.00
2018-06-08T03:18:11.009Z,0.00
2018-06-08T03:19:11.040Z,0.00
2018-06-08T03:20:11.061Z,0.00
2018-06-08T03:21:11.092Z,0.00
2018-06-08T03:22:11.122Z,0.00
2018-06-08T03:23:11.146Z,0.00
2018-06-08T03:24:11.178Z,0.00
2018-06-08T03:25:11.201Z,0.00
2018-06-08T03:26:11.231Z,0.00
2018-06-08T03:27:11.257Z,0.00
2018-06-08T03:28:11.288Z,0.00
2018-06-08T03:29:11.317Z,0.00
2018-06-08T03:30:11.344Z,0.00
2018-06-08T03:31:11.376Z,0.00
2018-06-08T03:32:11.400Z,0.00
2018-06-08T03:33:11.428Z,0.00
2018-06-08T03:34:11.457Z,0.00
2018-06-08T03:35:11.483Z,0.00
2018-06-08T03:36:11.511Z,0.00
2018-06-08T03:37:11.542Z,0.00
2018-06-08T03:38:11.571Z,0.00
2018-06-08T03:39:11.597Z,0.00
2018-06-08T03:40:11.626Z,0.00
2018-06-08T03:41:11.657Z,0.00
2018-06-08T03:42:11.681Z,0.00
2018-06-08T03:43:11.706Z,0.00
2018-06-08T03:44:11.736Z,0.00
2018-06-08T03:45:11.771Z,0.00
2018-06-08T03:46:11.794Z,0.00
2018-06-08T03:47:11.822Z,0.00
2018-06-08T03:48:11.853Z,0.00
2018-06-08T03:49:11.878Z,0.00
2018-06-08T03:50:11.909Z,0.00
2018-06-08T03:51:11.936Z,0.00
2018-06-08T03:52:11.970Z,0.00
2018-06-08T03:53:11.990Z,0.00
2018-06-08T03:54:12.016Z,0.00
2018-06-08T03:55:12.050Z,0.00
2018-06-08T03:56:12.071Z,0.00
2018-06-08T03:57:12.104Z,0.00
2018-06-08T03:58:12.132Z,0.00
2018-06-08T03:59:12.154Z,0.00
2018-06-08T04:00:12.189Z,0.00
2018-06-08T04:01:12.217Z,0.00
2018-06-08T04:02:12.244Z,0.00
2018-06-08T04:03:12.269Z,0.00
2018-06-08T04:04:12.300Z,0.00
2018-06-08T04:05:12.326Z,0.00
2018-06-08T04:06:12.359Z,0.00
2018-06-08T04:07:12.378Z,0.00
2018-06-08T04:08:12.413Z,0.00
2018-06-08T04:09:12.435Z,0.00
2018-06-08T04:10:12.465Z,0.10
2018-06-08T04:11:12.492Z,0.00
2018-06-08T04:12:12.520Z,0.00
2018-06-08T04:13:12.548Z,0.00
2018-06-08T04:14:12.574Z,0.00
2018-06-08T04:15:12.605Z,0.00
2018-06-08T04:16:12.634Z,0.00
2018-06-08T04:17:12.661Z,0.00
2018-06-08T04:18:12.691Z,0.00
2018-06-08T04:19:12.715Z,0.00
2018-06-08T04:20:12.746Z,0.00
2018-06-08T04:21:12.779Z,0.00
2018-06-08T04:22:12.798Z,0.00
2018-06-08T04:23:12.832Z,0.00
2018-06-08T04:24:12.857Z,0.00
2018-06-08T04:25:12.886Z,0.00
2018-06-08T04:26:12.913Z,0.00
2018-06-08T04:27:12.940Z,0.00
2018-06-08T04:28:12.969Z,0.00
2018-06-08T04:29:12.998Z,0.00
2018-06-08T04:30:13.027Z,0.00
2018-06-08T04:31:13.052Z,0.00
2018-06-08T04:32:13.079Z,0.00
2018-06-08T04:33:13.108Z,0.00
2018-06-08T04:34:13.143Z,0.10
2018-06-08T04:35:13.168Z,0.00
2018-06-08T04:36:13.193Z,0.00
2018-06-08T04:37:13.222Z,0.00
2018-06-08T04:38:13.249Z,0.00
2018-06-08T04:39:13.276Z,0.00
2018-06-08T04:40:13.306Z,0.10
2018-06-08T04:41:13.334Z,0.00
2018-06-08T04:42:13.364Z,0.00
2018-06-08T04:43:13.388Z,0.00
2018-06-08T04:44:13.418Z,0.00
2018-06-08T04:45:13.452Z,0.00
2018-06-08T04:46:13.475Z,0.00
2018-06-08T04:47:13.512Z,0.00
2018-06-08T04:48:13.533Z,0.00
2018-06-08T04:49:13.557Z,0.00
2018-06-08T04:50:13.583Z,0.00
2018-06-08T04:51:13.613Z,0.00
2018-06-08T04:52:13.643Z,0.00
2018-06-08T04:53:13.668Z,0.00
2018-06-08T04:54:13.700Z,0.00
2018-06-08T04:55:13.730Z,0.00
2018-06-08T04:56:13.753Z,0.00
2018-06-08T04:57:13.784Z,0.00
2018-06-08T04:58:13.821Z,0.00
2018-06-08T04:59:13.838Z,0.00
2018-06-08T05:00:13.867Z,0.00
2018-06-08T05:01:13.916Z,0.00
2018-06-08T05:02:13.921Z,0.00
2018-06-08T05:03:13.953Z,0.00
2018-06-08T05:04:13.977Z,0.00
2018-06-08T05:05:14.009Z,0.00
2018-06-08T05:06:14.038Z,0.00
2018-06-08T05:07:14.073Z,0.00
2018-06-08T05:08:14.093Z,0.00
2018-06-08T05:09:14.122Z,0.00
2018-06-08T05:10:14.151Z,0.00
2018-06-08T05:11:14.184Z,0.00
2018-06-08T05:12:14.206Z,0.00
2018-06-08T05:13:14.238Z,0.00
2018-06-08T05:14:14.262Z,0.00
2018-06-08T05:15:14.288Z,0.00
2018-06-08T05:16:14.317Z,0.00
2018-06-08T05:17:14.344Z,0.00
2018-06-08T05:18:14.373Z,0.00
2018-06-08T05:19:14.401Z,0.00
2018-06-08T05:20:14.433Z,0.00
2018-06-08T05:21:14.472Z,0.00
2018-06-08T05:22:14.487Z,0.00
2018-06-08T05:23:14.522Z,0.00
2018-06-08T05:24:14.543Z,0.00
2018-06-08T05:25:14.571Z,0.00
2018-06-08T05:26:14.618Z,0.00
2018-06-08T05:27:14.631Z,0.00
2018-06-08T05:28:14.660Z,0.00
2018-06-08T05:29:14.683Z,0.00
2018-06-08T05:30:14.716Z,0.00
2018-06-08T05:31:14.741Z,0.00
2018-06-08T05:32:14.771Z,0.00
2018-06-08T05:33:14.796Z,0.00
2018-06-08T05:34:14.838Z,0.00
2018-06-08T05:35:14.856Z,0.00
2018-06-08T05:36:14.908Z,0.00
2018-06-08T05:37:14.980Z,0.00
2018-06-08T05:38:14.942Z,0.00
2018-06-08T05:39:14.968Z,0.00
2018-06-08T05:40:15.000Z,0.10
2018-06-08T05:41:15.026Z,0.00
2018-06-08T05:42:15.061Z,0.00
2018-06-08T05:43:15.082Z,0.00
2018-06-08T05:44:15.110Z,0.00
2018-06-08T05:45:15.136Z,0.00
2018-06-08T05:46:15.165Z,0.00
2018-06-08T05:47:15.194Z,0.00
2018-06-08T05:48:15.256Z,0.00
2018-06-08T05:49:15.258Z,0.00
2018-06-08T05:50:15.276Z,0.00
2018-06-08T05:51:15.308Z,0.00
2018-06-08T05:52:15.339Z,0.00
2018-06-08T05:53:15.362Z,0.00
2018-06-08T05:54:15.418Z,0.00
2018-06-08T05:55:15.420Z,0.00
2018-06-08T05:56:15.445Z,0.00
2018-06-08T05:57:15.484Z,0.00
2018-06-08T05:58:15.508Z,0.00
2018-06-08T05:59:15.531Z,0.00
2018-06-08T06:00:15.561Z,0.00
2018-06-08T06:01:15.591Z,0.00
2018-06-08T06:02:15.618Z,0.00
2018-06-08T06:03:15.648Z,0.00
2018-06-08T06:04:15.681Z,0.00
2018-06-08T06:05:15.705Z,0.00
2018-06-08T06:06:15.740Z,0.00
2018-06-08T06:07:15.761Z,0.00
2018-06-08T06:08:15.825Z,0.00
2018-06-08T06:09:15.824Z,0.00
2018-06-08T06:10:15.850Z,0.00
2018-06-08T06:11:15.871Z,0.00
2018-06-08T06:12:15.900Z,0.00
2018-06-08T06:13:15.934Z,0.00
2018-06-08T06:14:15.960Z,0.00
2018-06-08T06:15:15.991Z,0.00
2018-06-08T06:16:16.015Z,0.00
2018-06-08T06:17:16.044Z,0.00
2018-06-08T06:18:16.070Z,0.00
2018-06-08T06:19:16.102Z,0.00
2018-06-08T06:20:16.132Z,0.00
2018-06-08T06:21:16.163Z,0.00
2018-06-08T06:22:16.190Z,0.00
2018-06-08T06:23:16.214Z,0.00
2018-06-08T06:24:16.244Z,0.00
2018-06-08T06:25:16.273Z,0.00
2018-06-08T06:26:16.302Z,0.00
2018-06-08T06:27:16.331Z,0.00
2018-06-08T06:29:03.920Z,0.00
2018-06-08T06:30:03.946Z,0.00
2018-06-08T06:31:03.974Z,0.00
2018-06-08T06:32:04.005Z,0.00
2018-06-08T06:33:04.037Z,0.00
2018-06-08T06:34:04.074Z,0.00
2018-06-08T06:35:04.091Z,0.00
2018-06-08T06:36:04.124Z,0.00
2018-06-08T06:37:04.155Z,0.00
2018-06-08T06:38:04.181Z,0.00
2018-06-08T06:39:04.210Z,0.00
2018-06-08T06:40:04.236Z,0.00
2018-06-08T06:41:04.266Z,0.00
2018-06-08T06:42:04.290Z,0.00
2018-06-08T06:43:04.321Z,0.00
2018-06-08T06:44:04.349Z,0.00
2018-06-08T06:45:04.380Z,0.00
2018-06-08T06:46:04.405Z,0.00
2018-06-08T06:47:04.434Z,0.00
2018-06-08T06:48:04.508Z,0.00
2018-06-08T06:49:04.493Z,0.00
2018-06-08T06:50:04.527Z,0.00
2018-06-08T06:51:04.548Z,0.00
2018-06-08T06:52:04.585Z,0.00
2018-06-08T06:53:04.660Z,0.00
2018-06-08T06:54:04.639Z,0.00
2018-06-08T06:55:04.663Z,0.00
2018-06-08T06:56:04.693Z,0.00
2018-06-08T06:57:04.726Z,0.00
2018-06-08T06:58:04.752Z,0.00
2018-06-08T06:59:47.330Z,0.00
2018-06-08T07:00:48.368Z,0.00
2018-06-08T07:01:47.384Z,0.00
2018-06-08T07:02:47.413Z,0.00
2018-06-08T07:03:47.449Z,0.00
2018-06-08T07:04:47.472Z,0.00
2018-06-08T07:05:47.504Z,0.00
2018-06-08T07:06:47.533Z,0.00
2018-06-08T07:07:47.564Z,0.00
2018-06-08T07:08:47.588Z,0.00
2018-06-08T07:09:47.618Z,0.00
2018-06-08T07:10:47.649Z,0.00
2018-06-08T07:11:47.676Z,0.00
2018-06-08T07:12:47.721Z,0.00
2018-06-08T07:13:47.732Z,0.00
2018-06-08T07:14:47.766Z,0.00
2018-06-08T07:15:47.787Z,0.00
2018-06-08T07:16:47.817Z,0.00
2018-06-08T07:17:47.849Z,0.00
2018-06-08T07:18:47.932Z,0.00
2018-06-08T07:19:47.905Z,0.00
2018-06-08T07:20:47.941Z,0.00
2018-06-08T07:21:47.962Z,0.00
2018-06-08T07:22:47.993Z,0.00
2018-06-08T07:23:48.022Z,0.00
2018-06-08T07:24:48.107Z,0.00
2018-06-08T07:25:48.076Z,0.00
2018-06-08T07:26:48.111Z,0.00
2018-06-08T07:27:48.140Z,0.00
2018-06-08T07:28:48.173Z,0.00
2018-06-08T07:29:48.204Z,0.00
2018-06-08T07:30:48.233Z,0.00
2018-06-08T07:31:48.340Z,0.00
2018-06-08T07:32:48.285Z,0.00
2018-06-08T07:33:48.312Z,0.00
2018-06-08T07:34:48.345Z,0.00
2018-06-08T07:35:48.366Z,0.00
2018-06-08T07:36:48.400Z,0.00
2018-06-08T07:37:48.426Z,0.00
2018-06-08T07:38:48.458Z,0.00
2018-06-08T07:39:48.487Z,0.00
2018-06-08T07:40:48.511Z,0.00
2018-06-08T07:41:48.546Z,0.00
2018-06-08T07:42:48.620Z,0.00
2018-06-08T07:43:48.603Z,0.00
2018-06-08T07:44:48.631Z,0.00
2018-06-08T07:45:48.661Z,0.00
2018-06-08T07:46:48.718Z,0.00
2018-06-08T07:47:48.718Z,0.00
2018-06-08T07:48:48.745Z,0.00
2018-06-08T07:49:48.776Z,0.00
2018-06-08T07:50:48.805Z,0.00
2018-06-08T07:51:48.835Z,0.00
2018-06-08T07:52:48.870Z,0.00
2018-06-08T07:53:48.917Z,0.00
2018-06-08T07:54:48.925Z,0.00
2018-06-08T07:55:49.004Z,0.00
2018-06-08T07:56:48.983Z,0.00
2018-06-08T07:57:49.019Z,0.00
2018-06-08T07:58:49.049Z,0.00
2018-06-08T07:59:49.070Z,0.00
2018-06-08T08:00:49.099Z,0.00
2018-06-08T08:01:49.133Z,0.00
2018-06-08T08:02:49.166Z,0.00
2018-06-08T08:03:52.220Z,0.00
2018-06-08T08:04:49.219Z,0.00
2018-06-08T08:05:49.249Z,0.00
2018-06-08T08:06:49.279Z,0.00
2018-06-08T08:07:49.309Z,0.00
2018-06-08T08:08:49.333Z,0.00
2018-06-08T08:09:49.363Z,0.00
2018-06-08T08:10:49.392Z,0.00
2018-06-08T08:11:49.420Z,0.00
2018-06-08T08:12:49.449Z,0.00
2018-06-08T08:13:49.484Z,0.00
2018-06-08T08:14:49.509Z,0.00
2018-06-08T08:15:49.544Z,0.00
2018-06-08T08:16:49.573Z,0.00
2018-06-08T08:17:49.598Z,0.00
2018-06-08T08:18:49.629Z,0.00
2018-06-08T08:19:49.652Z,0.00
2018-06-08T08:20:49.681Z,0.00
2018-06-08T08:21:49.713Z,0.00
2018-06-08T08:22:49.740Z,0.00
2018-06-08T08:23:49.765Z,0.00
2018-06-08T08:24:49.800Z,0.00
2018-06-08T08:25:49.865Z,0.00
2018-06-08T08:26:49.862Z,0.00
2018-06-08T08:27:49.882Z,0.00
2018-06-08T08:28:49.918Z,0.00
2018-06-08T08:29:49.943Z,0.00
2018-06-08T08:30:49.974Z,0.00
2018-06-08T08:31:50.006Z,0.00
2018-06-08T08:32:50.026Z,0.00
2018-06-08T08:33:50.058Z,0.00
2018-06-08T08:34:50.087Z,0.00
2018-06-08T08:35:50.119Z,0.00
2018-06-08T08:36:50.139Z,0.00
2018-06-08T08:37:50.178Z,0.00
2018-06-08T08:38:50.203Z,0.00
2018-06-08T08:39:50.240Z,0.00
2018-06-08T08:40:50.258Z,0.00
2018-06-08T08:41:50.287Z,0.00
2018-06-08T08:42:50.318Z,0.00
2018-06-08T08:43:50.345Z,0.00
2018-06-08T08:44:50.383Z,0.00
2018-06-08T08:45:50.401Z,0.00
2018-06-08T08:46:50.433Z,0.00
2018-06-08T08:47:50.462Z,0.00
2018-06-08T08:48:50.493Z,0.00
2018-06-08T08:49:50.518Z,0.00
2018-06-08T08:50:50.551Z,0.00
2018-06-08T08:51:50.579Z,0.00
2018-06-08T08:52:50.608Z,0.00
2018-06-08T08:53:50.636Z,0.00
2018-06-08T08:54:50.668Z,0.00
2018-06-08T08:55:50.688Z,0.00
2018-06-08T08:56:50.810Z,0.00
2018-06-08T08:57:50.753Z,0.00
2018-06-08T08:58:50.782Z,0.00
2018-06-08T08:59:50.809Z,0.00
2018-06-08T09:00:50.837Z,0.00
2018-06-08T09:01:50.863Z,0.00
2018-06-08T09:02:50.893Z,0.00
2018-06-08T09:03:50.930Z,0.00
2018-06-08T09:04:50.948Z,0.00
2018-06-08T09:05:51.007Z,0.00
2018-06-08T09:06:51.016Z,0.00
2018-06-08T09:07:51.039Z,0.00
2018-06-08T09:08:51.067Z,0.00
2018-06-08T09:09:51.098Z,0.00
2018-06-08T09:10:51.130Z,0.00
2018-06-08T09:11:51.152Z,0.00
2018-06-08T09:12:51.184Z,0.00
2018-06-08T09:13:51.213Z,0.00
2018-06-08T09:14:51.241Z,0.00
2018-06-08T09:15:51.269Z,0.00
2018-06-08T09:16:51.335Z,0.00
2018-06-08T09:17:51.327Z,0.00
2018-06-08T09:18:51.361Z,0.00
2018-06-08T09:19:51.391Z,0.00
2018-06-08T09:20:51.417Z,0.50
2018-06-08T09:21:51.446Z,0.00
2018-06-08T09:22:51.489Z,0.00
2018-06-08T09:23:51.509Z,0.00
2018-06-08T09:24:51.531Z,0.00
2018-06-08T09:25:51.560Z,0.00
2018-06-08T09:26:51.586Z,0.00
2018-06-08T09:27:51.616Z,0.00
2018-06-08T09:28:51.646Z,0.00
2018-06-08T09:29:51.671Z,0.00
2018-06-08T09:30:51.705Z,0.00
2018-06-08T09:31:51.729Z,0.00
2018-06-08T09:32:51.757Z,0.00
2018-06-08T09:33:51.790Z,0.00
2018-06-08T09:34:51.816Z,0.00
2018-06-08T09:35:51.844Z,0.00
2018-06-08T09:36:51.879Z,0.00
2018-06-08T09:37:51.908Z,0.00
2018-06-08T09:38:51.937Z,0.00
2018-06-08T09:39:51.962Z,0.00
2018-06-08T09:40:51.993Z,0.00
2018-06-08T09:41:52.025Z,0.00
2018-06-08T09:42:52.053Z,0.00
2018-06-08T09:43:52.089Z,0.00
2018-06-08T09:44:52.116Z,0.00
2018-06-08T09:45:52.147Z,0.00
2018-06-08T09:46:52.167Z,0.10
2018-06-08T09:47:52.195Z,0.00
2018-06-08T09:48:52.230Z,0.00
2018-06-08T09:49:52.253Z,0.00
2018-06-08T09:50:52.286Z,0.00
2018-06-08T09:51:52.322Z,0.10
2018-06-08T09:52:52.346Z,0.00
2018-06-08T09:53:52.375Z,0.00
2018-06-08T09:54:52.401Z,0.00
2018-06-08T09:55:52.429Z,0.00
2018-06-08T09:56:52.465Z,0.00
2018-06-08T09:57:52.497Z,0.00
2018-06-08T09:58:52.520Z,0.00
2018-06-08T09:59:52.544Z,0.00
2018-06-08T10:00:52.571Z,0.00
2018-06-08T10:01:52.603Z,0.00
2018-06-08T10:02:52.631Z,0.00
2018-06-08T10:03:52.664Z,0.00
2018-06-08T10:04:52.694Z,0.00
2018-06-08T10:05:52.720Z,0.00
2018-06-08T10:06:52.748Z,0.00
2018-06-08T10:07:52.775Z,0.00
2018-06-08T10:08:52.805Z,0.00
2018-06-08T10:09:52.837Z,0.00
2018-06-08T10:10:52.864Z,0.00
2018-06-08T10:11:52.897Z,0.00
2018-06-08T10:12:52.927Z,0.00
2018-06-08T10:13:52.959Z,0.00
2018-06-08T10:14:52.983Z,0.00
2018-06-08T10:15:53.013Z,0.00
2018-06-08T10:16:53.046Z,0.00
2018-06-08T10:17:53.072Z,0.00
2018-06-08T10:18:53.102Z,0.00
2018-06-08T10:19:53.133Z,0.00
2018-06-08T10:20:53.165Z,0.00
2018-06-08T10:21:53.193Z,0.00
2018-06-08T10:22:53.218Z,0.00
2018-06-08T10:23:53.253Z,0.00
2018-06-08T10:24:53.278Z,0.00
2018-06-08T10:25:53.304Z,0.00
2018-06-08T10:26:53.338Z,0.00
2018-06-08T10:27:53.373Z,0.00
2018-06-08T10:28:53.393Z,0.00
2018-06-08T10:29:53.428Z,0.00
2018-06-08T10:30:53.453Z,0.00
2018-06-08T10:31:53.484Z,0.00
2018-06-08T10:32:53.509Z,0.00
2018-06-08T10:33:53.542Z,0.00
2018-06-08T10:34:53.580Z,0.00
2018-06-08T10:35:53.604Z,0.00
2018-06-08T10:36:53.639Z,0.00
2018-06-08T10:37:53.656Z,0.00
2018-06-08T10:38:53.690Z,0.00
2018-06-08T10:39:53.767Z,0.00
2018-06-08T10:40:53.748Z,0.00
2018-06-08T10:41:53.778Z,0.00
2018-06-08T10:42:53.809Z,0.00
2018-06-08T10:43:53.837Z,0.00
2018-06-08T10:44:53.868Z,0.00
2018-06-08T10:45:53.899Z,0.00
2018-06-08T10:46:53.927Z,0.00
2018-06-08T10:47:53.958Z,0.00
2018-06-08T10:48:53.992Z,0.00
2018-06-08T10:49:54.062Z,0.00
2018-06-08T10:50:54.048Z,0.00
2018-06-08T10:51:54.079Z,0.00
2018-06-08T10:52:54.101Z,0.00
2018-06-08T10:53:54.132Z,0.00
2018-06-08T10:54:54.164Z,0.00
2018-06-08T10:55:54.191Z,0.00
2018-06-08T10:56:54.225Z,0.00
2018-06-08T10:57:54.253Z,0.00
2018-06-08T10:58:54.281Z,0.00
2018-06-08T10:59:54.312Z,0.00
2018-06-08T11:00:54.339Z,0.10
2018-06-08T11:01:54.369Z,0.10
2018-06-08T11:02:54.406Z,0.00
2018-06-08T11:03:54.429Z,0.10
2018-06-08T11:04:54.462Z,0.10
2018-06-08T11:05:54.492Z,0.10
2018-06-08T11:06:54.724Z,0.10
2018-06-08T11:07:54.556Z,0.10
2018-06-08T11:08:54.589Z,0.10
2018-06-08T11:09:54.614Z,0.20
2018-06-08T11:10:54.648Z,0.20
2018-06-08T11:11:54.681Z,0.10
2018-06-08T11:12:54.714Z,0.10
2018-06-08T11:13:54.742Z,0.20
2018-06-08T11:14:54.778Z,0.10
2018-06-08T11:15:54.812Z,0.20
2018-06-08T11:16:54.842Z,0.20
2018-06-08T11:17:54.884Z,0.20
2018-06-08T11:18:54.908Z,0.20
2018-06-08T11:19:55.007Z,0.20
2018-06-08T11:20:54.981Z,0.30
2018-06-08T11:21:55.018Z,0.80
2018-06-08T11:22:55.051Z,0.40
2018-06-08T11:23:55.082Z,0.40
2018-06-08T11:24:55.126Z,0.40
2018-06-08T11:25:55.155Z,0.40
2018-06-08T11:26:55.234Z,0.40
2018-06-08T11:27:55.224Z,0.50
2018-06-08T11:28:55.272Z,0.50
2018-06-08T11:29:55.300Z,0.50
2018-06-08T11:30:55.335Z,0.60
2018-06-08T11:31:55.371Z,0.50
2018-06-08T11:32:55.416Z,0.60
2018-06-08T11:33:55.445Z,0.60
2018-06-08T11:34:55.486Z,0.60
2018-06-08T11:35:55.521Z,0.60
2018-06-08T11:36:55.565Z,0.60
2018-06-08T11:37:55.594Z,0.70
2018-06-08T11:38:55.627Z,0.70
2018-06-08T11:39:55.668Z,0.70
2018-06-08T11:40:55.707Z,0.80
2018-06-08T11:41:55.753Z,0.70
2018-06-08T11:42:55.786Z,0.70
2018-06-08T11:43:55.816Z,0.70
2018-06-08T11:44:55.857Z,0.70
2018-06-08T11:45:55.950Z,0.70
2018-06-08T11:46:55.935Z,0.70
2018-06-08T11:47:55.972Z,0.70
2018-06-08T11:48:56.020Z,0.70
2018-06-08T11:49:56.048Z,0.70
2018-06-08T11:50:56.085Z,0.80
2018-06-08T11:51:56.125Z,0.80
2018-06-08T11:52:56.160Z,0.80
2018-06-08T11:53:56.199Z,0.80
2018-06-08T11:54:56.238Z,0.80
2018-06-08T11:55:56.276Z,0.80
2018-06-08T11:56:56.312Z,0.80
2018-06-08T11:57:56.354Z,0.80
2018-06-08T11:58:56.396Z,0.90
2018-06-08T11:59:56.430Z,0.90
2018-06-08T12:00:56.472Z,0.90
2018-06-08T12:01:56.528Z,0.90
2018-06-08T12:02:56.550Z,0.90
2018-06-08T12:03:56.590Z,0.90
2018-06-08T12:04:56.631Z,0.90
2018-06-08T12:05:56.670Z,0.90
2018-06-08T12:06:56.709Z,0.90
2018-06-08T12:07:56.746Z,0.90
2018-06-08T12:08:56.837Z,1.00
2018-06-08T12:09:56.822Z,1.00
2018-06-08T12:10:56.862Z,1.00
2018-06-08T12:11:56.909Z,1.00
2018-06-08T12:12:56.947Z,1.00
2018-06-08T12:13:56.984Z,1.10
2018-06-08T12:14:57.023Z,1.10
2018-06-08T12:15:57.067Z,1.10
2018-06-08T12:16:57.103Z,1.10
2018-06-08T12:17:57.142Z,1.20
2018-06-08T12:18:57.183Z,1.20
2018-06-08T12:19:57.225Z,1.20
2018-06-08T12:20:57.260Z,1.20
2018-06-08T12:21:57.307Z,1.20
2018-06-08T12:22:57.343Z,1.30
2018-06-08T12:23:57.384Z,1.30
2018-06-08T12:24:57.423Z,1.30
2018-06-08T12:25:57.462Z,1.30
2018-06-08T12:26:57.509Z,1.30
2018-06-08T12:27:57.545Z,1.30
2018-06-08T12:28:57.589Z,1.40
2018-06-08T12:29:57.626Z,1.40
2018-06-08T12:30:57.670Z,1.30
2018-06-08T12:31:57.770Z,1.40
2018-06-08T12:32:57.753Z,1.40
2018-06-08T12:33:57.793Z,1.50
2018-06-08T12:34:57.833Z,1.50
2018-06-08T12:35:57.873Z,1.50
2018-06-08T12:36:57.913Z,1.50
2018-06-08T12:37:57.961Z,1.50
2018-06-08T12:38:57.998Z,1.50
2018-06-08T12:39:58.039Z,1.50
2018-06-08T12:40:58.079Z,1.60
2018-06-08T12:41:58.120Z,1.50
2018-06-08T12:42:58.165Z,1.50
2018-06-08T12:43:58.210Z,1.60
2018-06-08T12:44:58.243Z,1.50
2018-06-08T12:45:58.290Z,1.50
2018-06-08T12:46:58.334Z,1.50
2018-06-08T12:47:58.373Z,1.50
2018-06-08T12:48:58.466Z,1.50
2018-06-08T12:49:58.453Z,1.50
2018-06-08T12:50:58.493Z,1.50
2018-06-08T12:51:58.538Z,1.50
2018-06-08T12:52:58.576Z,1.40
2018-06-08T12:53:58.618Z,1.40
2018-06-08T12:54:58.665Z,1.30
2018-06-08T12:55:58.698Z,1.30
2018-06-08T12:56:58.743Z,1.40
2018-06-08T12:57:58.792Z,1.40
2018-06-08T12:58:58.828Z,1.40
2018-06-08T12:59:58.877Z,1.40
2018-06-08T13:00:58.904Z,1.40
2018-06-08T13:01:58.947Z,1.40
2018-06-08T13:02:59.001Z,1.50
2018-06-08T13:03:59.061Z,1.40
2018-06-08T13:04:59.074Z,1.40
2018-06-08T13:05:59.116Z,1.30
2018-06-08T13:06:59.162Z,1.40
2018-06-08T13:07:59.202Z,1.40
2018-06-08T13:08:59.239Z,1.40
2018-06-08T13:09:59.287Z,1.40
2018-06-08T13:10:59.329Z,1.50
2018-06-08T13:11:59.367Z,1.50
2018-06-08T13:12:59.413Z,1.50
2018-06-08T13:13:59.453Z,1.50
2018-06-08T13:14:59.494Z,1.70
2018-06-08T13:15:59.537Z,1.60
2018-06-08T13:16:59.626Z,1.60
2018-06-08T13:17:59.618Z,1.60
2018-06-08T13:18:59.661Z,1.70
2018-06-08T13:19:59.701Z,1.60